sensor_id;sensor_type;location;lat;lon;timestamp;noise_LAeq;noise_LA_min;noise_LA_max;noise_LA01;noise_LA95
69610;Laerm;56816;52.192;4.474;2023-04-03T00:00:01;39.49;35.85;46.22;;
69610;Laerm;56816;52.192;4.474;2023-04-03T00:00:11;39.83;32.71;47.13;;
69610;Laerm;56816;52.192;4.474;2023-04-03T00:00:22;36.58;33.98;40.14;;
69610;Laerm;56816;52.192;4.474;2023-04-03T00:00:32;34.99;32.93;37.21;;
69610;Laerm;56816;52.192;4.474;2023-04-03T00:00:43;36.22;33.47;39.18;;
69610;Laerm;56816;52.192;4.474;2023-04-03T00:00:53;36.99;34.08;39.68;;
69610;Laerm;56816;52.192;4.474;2023-04-03T00:01:03;36.12;34.36;38.09;;
69610;Laerm;56816;52.192;4.474;2023-04-03T00:01:14;38.02;34.63;43.34;;
69610;Laerm;56816;52.192;4.474;2023-04-03T00:01:25;38.16;35.51;42.84;;
69610;Laerm;56816;52.192;4.474;2023-04-03T00:01:35;38.86;35.87;42.58;;
69610;Laerm;56816;52.192;4.474;2023-04-03T00:01:48;48.41;36.39;62.45;;
69610;Laerm;56816;52.192;4.474;2023-04-03T00:01:58;35.84;32.79;42.49;;
69610;Laerm;56816;52.192;4.474;2023-04-03T00:02:08;39.00;35.21;44.03;;
69610;Laerm;56816;52.192;4.474;2023-04-03T00:02:18;39.76;35.03;45.89;;
69610;Laerm;56816;52.192;4.474;2023-04-03T00:02:29;37.54;34.96;40.64;;
69610;Laerm;56816;52.192;4.474;2023-04-03T00:02:39;39.28;36.08;43.52;;
69610;Laerm;56816;52.192;4.474;2023-04-03T00:02:50;43.43;38.71;48.10;;
69610;Laerm;56816;52.192;4.474;2023-04-03T00:03:00;46.05;39.73;52.97;;
69610;Laerm;56816;52.192;4.474;2023-04-03T00:03:11;48.56;43.50;55.34;;
69610;Laerm;56816;52.192;4.474;2023-04-03T00:03:21;47.56;42.89;56.61;;
69610;Laerm;56816;52.192;4.474;2023-04-03T00:03:31;47.77;38.94;58.97;;
69610;Laerm;56816;52.192;4.474;2023-04-03T00:03:42;40.31;35.66;45.45;;
69610;Laerm;56816;52.192;4.474;2023-04-03T00:03:52;36.65;34.62;39.21;;
69610;Laerm;56816;52.192;4.474;2023-04-03T00:04:02;36.21;33.32;38.99;;
69610;Laerm;56816;52.192;4.474;2023-04-03T00:04:12;37.86;33.16;45.51;;
69610;Laerm;56816;52.192;4.474;2023-04-03T00:04:23;36.24;33.53;40.20;;
69610;Laerm;56816;52.192;4.474;2023-04-03T00:04:33;37.68;34.76;41.14;;
69610;Laerm;56816;52.192;4.474;2023-04-03T00:04:43;37.22;34.45;40.78;;
69610;Laerm;56816;52.192;4.474;2023-04-03T00:04:53;36.79;32.87;42.01;;
69610;Laerm;56816;52.192;4.474;2023-04-03T00:05:04;35.82;33.80;39.56;;
69610;Laerm;56816;52.192;4.474;2023-04-03T00:05:14;35.07;33.02;37.15;;
69610;Laerm;56816;52.192;4.474;2023-04-03T00:05:25;36.01;33.38;39.24;;
69610;Laerm;56816;52.192;4.474;2023-04-03T00:05:36;35.40;33.39;37.42;;
69610;Laerm;56816;52.192;4.474;2023-04-03T00:05:46;36.69;34.32;44.79;;
69610;Laerm;56816;52.192;4.474;2023-04-03T00:05:56;39.33;34.66;43.96;;
69610;Laerm;56816;52.192;4.474;2023-04-03T00:06:07;38.44;35.13;42.75;;
69610;Laerm;56816;52.192;4.474;2023-04-03T00:06:18;39.78;35.85;44.04;;
69610;Laerm;56816;52.192;4.474;2023-04-03T00:06:29;39.20;36.83;43.62;;
69610;Laerm;56816;52.192;4.474;2023-04-03T00:06:39;39.70;36.30;42.83;;
69610;Laerm;56816;52.192;4.474;2023-04-03T00:06:49;37.33;34.18;40.06;;
69610;Laerm;56816;52.192;4.474;2023-04-03T00:06:59;37.83;35.16;40.74;;
69610;Laerm;56816;52.192;4.474;2023-04-03T00:07:10;37.44;34.98;39.93;;
69610;Laerm;56816;52.192;4.474;2023-04-03T00:07:20;36.85;34.05;38.80;;
69610;Laerm;56816;52.192;4.474;2023-04-03T00:07:31;37.67;35.24;40.14;;
69610;Laerm;56816;52.192;4.474;2023-04-03T00:07:41;36.84;34.13;40.15;;
69610;Laerm;56816;52.192;4.474;2023-04-03T00:07:51;36.96;34.71;39.27;;
69610;Laerm;56816;52.192;4.474;2023-04-03T00:08:01;37.75;35.40;41.66;;
69610;Laerm;56816;52.192;4.474;2023-04-03T00:08:12;36.37;33.74;38.44;;
69610;Laerm;56816;52.192;4.474;2023-04-03T00:08:22;36.82;33.48;40.13;;
69610;Laerm;56816;52.192;4.474;2023-04-03T00:08:32;44.91;35.73;57.14;;
69610;Laerm;56816;52.192;4.474;2023-04-03T00:08:43;43.29;35.29;51.24;;
69610;Laerm;56816;52.192;4.474;2023-04-03T00:08:53;38.07;35.52;41.75;;
69610;Laerm;56816;52.192;4.474;2023-04-03T00:09:03;42.68;39.03;46.95;;
69610;Laerm;56816;52.192;4.474;2023-04-03T00:09:13;42.20;37.30;45.36;;
69610;Laerm;56816;52.192;4.474;2023-04-03T00:09:24;39.86;37.05;42.55;;
69610;Laerm;56816;52.192;4.474;2023-04-03T00:09:35;39.09;34.88;44.90;;
69610;Laerm;56816;52.192;4.474;2023-04-03T00:09:45;38.18;34.32;42.41;;
69610;Laerm;56816;52.192;4.474;2023-04-03T00:09:55;35.95;33.00;38.55;;
69610;Laerm;56816;52.192;4.474;2023-04-03T00:10:06;35.58;33.77;37.64;;
69610;Laerm;56816;52.192;4.474;2023-04-03T00:10:16;37.59;33.82;43.72;;
69610;Laerm;56816;52.192;4.474;2023-04-03T00:10:27;38.00;34.62;43.92;;
69610;Laerm;56816;52.192;4.474;2023-04-03T00:10:37;37.32;34.25;44.73;;
69610;Laerm;56816;52.192;4.474;2023-04-03T00:10:48;36.22;33.34;43.70;;
69610;Laerm;56816;52.192;4.474;2023-04-03T00:10:58;34.95;32.45;37.99;;
69610;Laerm;56816;52.192;4.474;2023-04-03T00:11:09;35.04;32.82;38.88;;
69610;Laerm;56816;52.192;4.474;2023-04-03T00:11:19;35.52;33.25;38.01;;
69610;Laerm;56816;52.192;4.474;2023-04-03T00:11:30;39.18;33.82;47.13;;
69610;Laerm;56816;52.192;4.474;2023-04-03T00:11:41;43.26;37.19;53.28;;
69610;Laerm;56816;52.192;4.474;2023-04-03T00:11:51;43.50;36.89;52.17;;
69610;Laerm;56816;52.192;4.474;2023-04-03T00:12:01;42.53;35.15;57.67;;
69610;Laerm;56816;52.192;4.474;2023-04-03T00:12:11;44.03;38.14;49.20;;
69610;Laerm;56816;52.192;4.474;2023-04-03T00:12:22;43.86;38.20;49.27;;
69610;Laerm;56816;52.192;4.474;2023-04-03T00:12:32;38.91;35.38;42.95;;
69610;Laerm;56816;52.192;4.474;2023-04-03T00:12:42;36.37;33.60;39.08;;
69610;Laerm;56816;52.192;4.474;2023-04-03T00:12:52;37.24;32.53;43.63;;
69610;Laerm;56816;52.192;4.474;2023-04-03T00:13:03;35.09;32.73;37.11;;
69610;Laerm;56816;52.192;4.474;2023-04-03T00:13:14;36.14;33.41;40.70;;
69610;Laerm;56816;52.192;4.474;2023-04-03T00:13:25;36.78;33.95;45.11;;
69610;Laerm;56816;52.192;4.474;2023-04-03T00:13:35;36.64;33.72;41.69;;
69610;Laerm;56816;52.192;4.474;2023-04-03T00:13:46;38.79;34.33;50.97;;
69610;Laerm;56816;52.192;4.474;2023-04-03T00:13:56;39.63;34.23;52.96;;
69610;Laerm;56816;52.192;4.474;2023-04-03T00:14:06;38.51;35.41;42.96;;
69610;Laerm;56816;52.192;4.474;2023-04-03T00:14:17;38.66;35.15;45.64;;
69610;Laerm;56816;52.192;4.474;2023-04-03T00:14:27;36.24;33.68;40.01;;
69610;Laerm;56816;52.192;4.474;2023-04-03T00:14:37;37.06;34.92;39.95;;
69610;Laerm;56816;52.192;4.474;2023-04-03T00:14:47;35.94;33.37;39.44;;
69610;Laerm;56816;52.192;4.474;2023-04-03T00:14:58;35.41;33.16;37.48;;
69610;Laerm;56816;52.192;4.474;2023-04-03T00:15:08;36.55;33.70;40.23;;
69610;Laerm;56816;52.192;4.474;2023-04-03T00:15:18;37.78;34.59;47.28;;
69610;Laerm;56816;52.192;4.474;2023-04-03T00:15:29;37.14;35.05;40.24;;
69610;Laerm;56816;52.192;4.474;2023-04-03T00:15:39;38.56;35.61;41.19;;
69610;Laerm;56816;52.192;4.474;2023-04-03T00:15:50;44.11;40.32;46.94;;
69610;Laerm;56816;52.192;4.474;2023-04-03T00:16:01;42.31;38.86;47.62;;
69610;Laerm;56816;52.192;4.474;2023-04-03T00:16:11;48.94;42.52;52.86;;
69610;Laerm;56816;52.192;4.474;2023-04-03T00:16:22;41.60;36.68;51.13;;
69610;Laerm;56816;52.192;4.474;2023-04-03T00:16:32;39.10;36.43;45.80;;
69610;Laerm;56816;52.192;4.474;2023-04-03T00:16:42;38.11;34.13;44.61;;
69610;Laerm;56816;52.192;4.474;2023-04-03T00:16:53;35.83;33.68;38.01;;
69610;Laerm;56816;52.192;4.474;2023-04-03T00:17:03;37.23;33.56;44.45;;
69610;Laerm;56816;52.192;4.474;2023-04-03T00:17:13;35.48;32.68;41.96;;
69610;Laerm;56816;52.192;4.474;2023-04-03T00:17:23;34.58;32.61;37.03;;
69610;Laerm;56816;52.192;4.474;2023-04-03T00:17:34;36.32;32.80;42.31;;
69610;Laerm;56816;52.192;4.474;2023-04-03T00:17:44;36.00;33.45;40.26;;
69610;Laerm;56816;52.192;4.474;2023-04-03T00:17:55;36.98;34.15;42.33;;
69610;Laerm;56816;52.192;4.474;2023-04-03T00:18:06;38.77;35.58;46.06;;
69610;Laerm;56816;52.192;4.474;2023-04-03T00:18:16;39.28;35.49;48.20;;
69610;Laerm;56816;52.192;4.474;2023-04-03T00:18:27;38.01;35.25;42.49;;
69610;Laerm;56816;52.192;4.474;2023-04-03T00:18:38;39.56;36.99;42.56;;
69610;Laerm;56816;52.192;4.474;2023-04-03T00:18:48;41.68;38.26;45.29;;
69610;Laerm;56816;52.192;4.474;2023-04-03T00:18:58;43.32;40.52;45.80;;
69610;Laerm;56816;52.192;4.474;2023-04-03T00:19:09;45.72;42.97;48.06;;
69610;Laerm;56816;52.192;4.474;2023-04-03T00:19:21;42.49;38.14;47.56;;
69610;Laerm;56816;52.192;4.474;2023-04-03T00:19:32;40.57;36.85;44.30;;
69610;Laerm;56816;52.192;4.474;2023-04-03T00:19:42;43.98;37.86;49.01;;
69610;Laerm;56816;52.192;4.474;2023-04-03T00:19:52;45.05;41.32;48.48;;
69610;Laerm;56816;52.192;4.474;2023-04-03T00:20:03;45.37;40.26;50.55;;
69610;Laerm;56816;52.192;4.474;2023-04-03T00:20:14;57.95;43.66;65.38;;
69610;Laerm;56816;52.192;4.474;2023-04-03T00:20:24;42.98;36.92;48.46;;
69610;Laerm;56816;52.192;4.474;2023-04-03T00:20:34;39.25;36.61;44.61;;
69610;Laerm;56816;52.192;4.474;2023-04-03T00:20:45;37.83;34.59;41.53;;
69610;Laerm;56816;52.192;4.474;2023-04-03T00:20:55;36.55;33.57;41.17;;
69610;Laerm;56816;52.192;4.474;2023-04-03T00:21:05;35.18;33.08;40.72;;
69610;Laerm;56816;52.192;4.474;2023-04-03T00:21:16;34.56;32.67;38.77;;
69610;Laerm;56816;52.192;4.474;2023-04-03T00:21:26;35.86;32.90;38.65;;
69610;Laerm;56816;52.192;4.474;2023-04-03T00:21:37;35.38;33.00;37.54;;
69610;Laerm;56816;52.192;4.474;2023-04-03T00:21:47;36.85;33.80;45.03;;
69610;Laerm;56816;52.192;4.474;2023-04-03T00:21:57;48.80;38.90;66.90;;
69610;Laerm;56816;52.192;4.474;2023-04-03T00:22:07;37.08;32.68;45.58;;
69610;Laerm;56816;52.192;4.474;2023-04-03T00:22:17;36.82;33.63;39.57;;
69610;Laerm;56816;52.192;4.474;2023-04-03T00:22:28;40.13;35.34;46.50;;
69610;Laerm;56816;52.192;4.474;2023-04-03T00:22:38;36.06;34.03;38.95;;
69610;Laerm;56816;52.192;4.474;2023-04-03T00:22:49;38.43;33.76;49.90;;
69610;Laerm;56816;52.192;4.474;2023-04-03T00:23:00;37.18;32.43;46.98;;
69610;Laerm;56816;52.192;4.474;2023-04-03T00:23:10;34.77;32.59;38.11;;
69610;Laerm;56816;52.192;4.474;2023-04-03T00:23:20;34.27;31.20;38.06;;
69610;Laerm;56816;52.192;4.474;2023-04-03T00:23:31;36.37;32.93;42.28;;
69610;Laerm;56816;52.192;4.474;2023-04-03T00:23:41;35.57;32.22;39.62;;
69610;Laerm;56816;52.192;4.474;2023-04-03T00:23:51;35.87;32.37;41.78;;
69610;Laerm;56816;52.192;4.474;2023-04-03T00:24:02;34.10;32.13;36.56;;
69610;Laerm;56816;52.192;4.474;2023-04-03T00:24:12;34.86;32.00;42.16;;
69610;Laerm;56816;52.192;4.474;2023-04-03T00:24:22;37.06;33.14;43.23;;
69610;Laerm;56816;52.192;4.474;2023-04-03T00:24:33;50.91;39.49;58.14;;
69610;Laerm;56816;52.192;4.474;2023-04-03T00:24:43;39.59;34.77;42.46;;
69610;Laerm;56816;52.192;4.474;2023-04-03T00:24:54;35.24;32.60;38.07;;
69610;Laerm;56816;52.192;4.474;2023-04-03T00:25:04;36.75;34.18;39.71;;
69610;Laerm;56816;52.192;4.474;2023-04-03T00:25:14;36.11;33.50;38.80;;
69610;Laerm;56816;52.192;4.474;2023-04-03T00:25:25;37.87;34.19;42.14;;
69610;Laerm;56816;52.192;4.474;2023-04-03T00:25:35;37.11;32.58;43.36;;
69610;Laerm;56816;52.192;4.474;2023-04-03T00:25:46;37.72;32.75;50.23;;
69610;Laerm;56816;52.192;4.474;2023-04-03T00:25:56;45.22;33.55;61.98;;
69610;Laerm;56816;52.192;4.474;2023-04-03T00:26:06;45.05;33.18;58.85;;
69610;Laerm;56816;52.192;4.474;2023-04-03T00:26:16;43.69;32.73;58.08;;
69610;Laerm;56816;52.192;4.474;2023-04-03T00:26:27;35.15;32.72;38.35;;
69610;Laerm;56816;52.192;4.474;2023-04-03T00:26:37;35.78;33.36;40.57;;
69610;Laerm;56816;52.192;4.474;2023-04-03T00:26:47;50.45;38.51;57.34;;
69610;Laerm;56816;52.192;4.474;2023-04-03T00:26:57;37.17;35.31;41.33;;
69610;Laerm;56816;52.192;4.474;2023-04-03T00:27:07;35.75;33.34;38.03;;
69610;Laerm;56816;52.192;4.474;2023-04-03T00:27:18;36.10;33.44;39.14;;
69610;Laerm;56816;52.192;4.474;2023-04-03T00:27:28;36.51;33.81;40.41;;
69610;Laerm;56816;52.192;4.474;2023-04-03T00:27:38;35.02;32.86;36.99;;
69610;Laerm;56816;52.192;4.474;2023-04-03T00:27:49;36.02;33.19;38.87;;
69610;Laerm;56816;52.192;4.474;2023-04-03T00:28:00;45.39;35.74;52.28;;
69610;Laerm;56816;52.192;4.474;2023-04-03T00:28:10;39.95;35.73;45.12;;
69610;Laerm;56816;52.192;4.474;2023-04-03T00:28:20;37.55;34.08;40.72;;
69610;Laerm;56816;52.192;4.474;2023-04-03T00:28:31;36.49;33.06;41.28;;
69610;Laerm;56816;52.192;4.474;2023-04-03T00:28:41;34.92;32.18;39.17;;
69610;Laerm;56816;52.192;4.474;2023-04-03T00:28:51;34.96;32.22;39.73;;
69610;Laerm;56816;52.192;4.474;2023-04-03T00:29:01;35.19;32.91;38.08;;
69610;Laerm;56816;52.192;4.474;2023-04-03T00:29:12;33.97;31.75;35.90;;
69610;Laerm;56816;52.192;4.474;2023-04-03T00:29:22;33.64;31.17;35.41;;
69610;Laerm;56816;52.192;4.474;2023-04-03T00:29:32;34.97;32.24;38.36;;
69610;Laerm;56816;52.192;4.474;2023-04-03T00:29:43;36.36;32.46;41.51;;
69610;Laerm;56816;52.192;4.474;2023-04-03T00:29:53;37.28;34.22;42.26;;
69610;Laerm;56816;52.192;4.474;2023-04-03T00:30:03;36.86;33.96;39.38;;
69610;Laerm;56816;52.192;4.474;2023-04-03T00:30:14;36.52;33.93;39.28;;
69610;Laerm;56816;52.192;4.474;2023-04-03T00:30:25;35.80;33.17;40.26;;
69610;Laerm;56816;52.192;4.474;2023-04-03T00:30:35;35.05;32.62;37.34;;
69610;Laerm;56816;52.192;4.474;2023-04-03T00:30:46;33.98;31.86;36.16;;
69610;Laerm;56816;52.192;4.474;2023-04-03T00:30:56;35.67;32.30;44.36;;
69610;Laerm;56816;52.192;4.474;2023-04-03T00:31:06;38.62;31.95;52.63;;
69610;Laerm;56816;52.192;4.474;2023-04-03T00:31:17;34.08;31.93;35.63;;
69610;Laerm;56816;52.192;4.474;2023-04-03T00:31:27;33.78;31.61;37.61;;
69610;Laerm;56816;52.192;4.474;2023-04-03T00:31:37;35.01;32.29;38.98;;
69610;Laerm;56816;52.192;4.474;2023-04-03T00:31:47;37.01;33.19;43.60;;
69610;Laerm;56816;52.192;4.474;2023-04-03T00:31:58;38.89;35.33;41.42;;
69610;Laerm;56816;52.192;4.474;2023-04-03T00:32:08;37.25;33.67;40.75;;
69610;Laerm;56816;52.192;4.474;2023-04-03T00:32:18;53.24;39.24;64.94;;
69610;Laerm;56816;52.192;4.474;2023-04-03T00:32:28;39.05;33.28;49.58;;
69610;Laerm;56816;52.192;4.474;2023-04-03T00:32:39;41.87;33.67;46.81;;
69610;Laerm;56816;52.192;4.474;2023-04-03T00:32:49;46.19;40.67;50.26;;
69610;Laerm;56816;52.192;4.474;2023-04-03T00:33:00;40.27;35.42;44.50;;
69610;Laerm;56816;52.192;4.474;2023-04-03T00:33:12;35.12;32.03;37.15;;
69610;Laerm;56816;52.192;4.474;2023-04-03T00:33:22;35.53;32.67;38.42;;
69610;Laerm;56816;52.192;4.474;2023-04-03T00:33:34;34.90;32.93;37.20;;
69610;Laerm;56816;52.192;4.474;2023-04-03T00:33:44;34.93;32.91;38.42;;
69610;Laerm;56816;52.192;4.474;2023-04-03T00:33:55;35.76;32.77;38.99;;
69610;Laerm;56816;52.192;4.474;2023-04-03T00:34:05;37.47;33.96;42.18;;
69610;Laerm;56816;52.192;4.474;2023-04-03T00:34:15;53.13;40.61;60.27;;
69610;Laerm;56816;52.192;4.474;2023-04-03T00:34:25;39.52;35.27;43.19;;
69610;Laerm;56816;52.192;4.474;2023-04-03T00:34:36;36.32;33.15;40.70;;
69610;Laerm;56816;52.192;4.474;2023-04-03T00:34:46;34.66;32.51;38.01;;
69610;Laerm;56816;52.192;4.474;2023-04-03T00:34:56;34.24;32.01;39.72;;
69610;Laerm;56816;52.192;4.474;2023-04-03T00:35:07;35.25;33.15;39.02;;
69610;Laerm;56816;52.192;4.474;2023-04-03T00:35:18;34.27;32.40;36.70;;
69610;Laerm;56816;52.192;4.474;2023-04-03T00:35:28;33.81;31.91;36.33;;
69610;Laerm;56816;52.192;4.474;2023-04-03T00:35:39;34.35;32.45;36.34;;
69610;Laerm;56816;52.192;4.474;2023-04-03T00:35:49;34.11;31.97;37.77;;
69610;Laerm;56816;52.192;4.474;2023-04-03T00:36:05;36.37;32.12;41.78;;
69610;Laerm;56816;52.192;4.474;2023-04-03T00:36:15;34.42;32.09;38.00;;
69610;Laerm;56816;52.192;4.474;2023-04-03T00:36:25;34.54;32.30;36.78;;
69610;Laerm;56816;52.192;4.474;2023-04-03T00:36:36;34.18;32.21;36.02;;
69610;Laerm;56816;52.192;4.474;2023-04-03T00:36:46;33.81;31.47;36.45;;
69610;Laerm;56816;52.192;4.474;2023-04-03T00:36:56;33.54;31.72;35.06;;
69610;Laerm;56816;52.192;4.474;2023-04-03T00:37:07;34.01;31.72;36.31;;
69610;Laerm;56816;52.192;4.474;2023-04-03T00:37:17;34.44;32.14;37.91;;
69610;Laerm;56816;52.192;4.474;2023-04-03T00:37:27;35.34;32.50;42.29;;
69610;Laerm;56816;52.192;4.474;2023-04-03T00:37:37;35.28;32.43;44.90;;
69610;Laerm;56816;52.192;4.474;2023-04-03T00:37:48;36.17;32.77;43.08;;
69610;Laerm;56816;52.192;4.474;2023-04-03T00:38:00;36.05;31.97;45.89;;
69610;Laerm;56816;52.192;4.474;2023-04-03T00:38:11;34.18;32.08;37.25;;
69610;Laerm;56816;52.192;4.474;2023-04-03T00:38:21;33.77;31.67;37.51;;
69610;Laerm;56816;52.192;4.474;2023-04-03T00:38:31;33.37;31.48;35.24;;
69610;Laerm;56816;52.192;4.474;2023-04-03T00:38:41;33.46;31.72;35.56;;
69610;Laerm;56816;52.192;4.474;2023-04-03T00:38:52;36.69;31.48;51.31;;
69610;Laerm;56816;52.192;4.474;2023-04-03T00:39:02;35.22;32.19;44.64;;
69610;Laerm;56816;52.192;4.474;2023-04-03T00:39:12;33.36;31.29;35.00;;
69610;Laerm;56816;52.192;4.474;2023-04-03T00:39:22;39.46;31.44;56.92;;
69610;Laerm;56816;52.192;4.474;2023-04-03T00:39:33;39.98;31.33;58.21;;
69610;Laerm;56816;52.192;4.474;2023-04-03T00:39:43;33.55;31.35;35.13;;
69610;Laerm;56816;52.192;4.474;2023-04-03T00:39:53;33.27;31.45;35.31;;
69610;Laerm;56816;52.192;4.474;2023-04-03T00:40:04;33.50;31.42;37.48;;
69610;Laerm;56816;52.192;4.474;2023-04-03T00:40:14;33.11;31.28;34.95;;
69610;Laerm;56816;52.192;4.474;2023-04-03T00:40:25;33.23;31.27;35.52;;
69610;Laerm;56816;52.192;4.474;2023-04-03T00:40:37;33.25;31.16;35.72;;
69610;Laerm;56816;52.192;4.474;2023-04-03T00:40:48;33.60;31.25;38.24;;
69610;Laerm;56816;52.192;4.474;2023-04-03T00:40:58;34.78;32.54;40.02;;
69610;Laerm;56816;52.192;4.474;2023-04-03T00:41:09;37.15;33.55;43.98;;
69610;Laerm;56816;52.192;4.474;2023-04-03T00:41:19;34.76;31.46;37.15;;
69610;Laerm;56816;52.192;4.474;2023-04-03T00:41:30;35.22;32.03;38.55;;
69610;Laerm;56816;52.192;4.474;2023-04-03T00:41:40;35.68;32.97;37.87;;
69610;Laerm;56816;52.192;4.474;2023-04-03T00:41:50;35.37;32.02;40.42;;
69610;Laerm;56816;52.192;4.474;2023-04-03T00:42:00;35.89;33.53;38.37;;
69610;Laerm;56816;52.192;4.474;2023-04-03T00:42:11;35.92;33.08;38.35;;
69610;Laerm;56816;52.192;4.474;2023-04-03T00:42:21;36.01;33.23;39.19;;
69610;Laerm;56816;52.192;4.474;2023-04-03T00:42:31;40.02;34.38;46.00;;
69610;Laerm;56816;52.192;4.474;2023-04-03T00:42:42;45.83;36.54;58.11;;
69610;Laerm;56816;52.192;4.474;2023-04-03T00:42:56;45.87;37.13;58.89;;
69610;Laerm;56816;52.192;4.474;2023-04-03T00:43:26;46.43;38.40;57.48;;
69610;Laerm;56816;52.192;4.474;2023-04-03T00:43:37;38.05;33.84;42.98;;
69610;Laerm;56816;52.192;4.474;2023-04-03T00:43:47;37.59;33.06;48.74;;
69610;Laerm;56816;52.192;4.474;2023-04-03T00:43:57;35.88;33.15;39.84;;
69610;Laerm;56816;52.192;4.474;2023-04-03T00:44:20;34.66;31.89;43.66;;
69610;Laerm;56816;52.192;4.474;2023-04-03T00:45:26;34.71;32.12;46.14;;
69610;Laerm;56816;52.192;4.474;2023-04-03T00:45:38;33.49;31.57;37.97;;
69610;Laerm;56816;52.192;4.474;2023-04-03T00:45:51;33.68;31.13;41.42;;
69610;Laerm;56816;52.192;4.474;2023-04-03T00:46:01;33.15;31.16;36.65;;
69610;Laerm;56816;52.192;4.474;2023-04-03T00:46:12;33.12;31.51;41.12;;
69610;Laerm;56816;52.192;4.474;2023-04-03T00:46:22;33.09;31.05;38.41;;
69610;Laerm;56816;52.192;4.474;2023-04-03T00:46:32;33.27;31.35;36.88;;
69610;Laerm;56816;52.192;4.474;2023-04-03T00:46:42;35.42;32.69;43.03;;
69610;Laerm;56816;52.192;4.474;2023-04-03T00:46:53;37.55;33.07;44.22;;
69610;Laerm;56816;52.192;4.474;2023-04-03T00:47:03;36.61;32.60;48.96;;
69610;Laerm;56816;52.192;4.474;2023-04-03T00:47:16;34.64;32.02;36.64;;
69610;Laerm;56816;52.192;4.474;2023-04-03T00:47:27;34.08;31.92;36.88;;
69610;Laerm;56816;52.192;4.474;2023-04-03T00:47:38;34.37;32.35;37.12;;
69610;Laerm;56816;52.192;4.474;2023-04-03T00:47:50;35.33;32.02;38.20;;
69610;Laerm;56816;52.192;4.474;2023-04-03T00:48:02;38.18;33.98;44.43;;
69610;Laerm;56816;52.192;4.474;2023-04-03T00:48:37;39.50;35.71;44.75;;
69610;Laerm;56816;52.192;4.474;2023-04-03T00:48:48;37.71;34.35;42.86;;
69610;Laerm;56816;52.192;4.474;2023-04-03T00:48:59;38.45;34.33;45.54;;
69610;Laerm;56816;52.192;4.474;2023-04-03T00:49:09;37.26;33.81;42.06;;
69610;Laerm;56816;52.192;4.474;2023-04-03T00:49:20;40.78;35.19;47.11;;
69610;Laerm;56816;52.192;4.474;2023-04-03T00:49:30;36.44;32.58;39.57;;
69610;Laerm;56816;52.192;4.474;2023-04-03T00:49:41;35.91;32.85;41.14;;
69610;Laerm;56816;52.192;4.474;2023-04-03T00:49:52;34.88;32.59;38.24;;
69610;Laerm;56816;52.192;4.474;2023-04-03T00:50:03;34.76;31.63;38.71;;
69610;Laerm;56816;52.192;4.474;2023-04-03T00:50:14;35.12;32.84;38.70;;
69610;Laerm;56816;52.192;4.474;2023-04-03T00:50:25;35.67;32.95;39.87;;
69610;Laerm;56816;52.192;4.474;2023-04-03T00:50:37;46.92;33.36;54.53;;
69610;Laerm;56816;52.192;4.474;2023-04-03T00:50:48;48.68;35.11;57.52;;
69610;Laerm;56816;52.192;4.474;2023-04-03T00:50:59;35.71;32.18;41.38;;
69610;Laerm;56816;52.192;4.474;2023-04-03T00:51:12;33.57;31.56;35.57;;
69610;Laerm;56816;52.192;4.474;2023-04-03T00:51:23;33.77;30.91;36.37;;
69610;Laerm;56816;52.192;4.474;2023-04-03T00:51:34;33.70;31.73;35.55;;
69610;Laerm;56816;52.192;4.474;2023-04-03T00:51:45;33.88;31.23;36.12;;
69610;Laerm;56816;52.192;4.474;2023-04-03T00:51:55;34.19;32.09;36.63;;
69610;Laerm;56816;52.192;4.474;2023-04-03T00:52:08;35.77;33.05;40.87;;
69610;Laerm;56816;52.192;4.474;2023-04-03T00:52:21;35.97;33.11;39.17;;
69610;Laerm;56816;52.192;4.474;2023-04-03T00:52:32;35.38;32.58;39.60;;
69610;Laerm;56816;52.192;4.474;2023-04-03T00:52:43;35.57;32.74;40.61;;
69610;Laerm;56816;52.192;4.474;2023-04-03T00:52:56;34.68;31.66;41.95;;
69610;Laerm;56816;52.192;4.474;2023-04-03T00:53:07;33.71;31.87;35.55;;
69610;Laerm;56816;52.192;4.474;2023-04-03T00:53:20;35.45;32.61;42.44;;
69610;Laerm;56816;52.192;4.474;2023-04-03T00:53:33;37.23;33.42;43.97;;
69610;Laerm;56816;52.192;4.474;2023-04-03T00:53:47;36.68;33.95;42.48;;
69610;Laerm;56816;52.192;4.474;2023-04-03T00:53:59;36.40;33.02;41.80;;
69610;Laerm;56816;52.192;4.474;2023-04-03T00:54:11;36.28;32.93;39.85;;
69610;Laerm;56816;52.192;4.474;2023-04-03T00:54:21;34.91;32.89;37.55;;
69610;Laerm;56816;52.192;4.474;2023-04-03T00:54:32;35.55;32.52;39.64;;
69610;Laerm;56816;52.192;4.474;2023-04-03T00:54:42;36.42;31.54;41.95;;
69610;Laerm;56816;52.192;4.474;2023-04-03T00:54:54;36.40;33.13;40.17;;
69610;Laerm;56816;52.192;4.474;2023-04-03T00:55:07;36.44;32.63;40.06;;
69610;Laerm;56816;52.192;4.474;2023-04-03T00:55:18;36.88;33.17;42.70;;
69610;Laerm;56816;52.192;4.474;2023-04-03T00:55:29;38.28;33.68;44.27;;
69610;Laerm;56816;52.192;4.474;2023-04-03T00:55:39;36.25;33.49;40.26;;
69610;Laerm;56816;52.192;4.474;2023-04-03T00:55:51;35.31;32.76;37.79;;
69610;Laerm;56816;52.192;4.474;2023-04-03T00:56:03;35.10;32.18;39.10;;
69610;Laerm;56816;52.192;4.474;2023-04-03T00:56:16;35.67;32.68;40.80;;
69610;Laerm;56816;52.192;4.474;2023-04-03T00:56:27;35.14;32.59;40.31;;
69610;Laerm;56816;52.192;4.474;2023-04-03T00:56:40;35.26;32.78;38.43;;
69610;Laerm;56816;52.192;4.474;2023-04-03T00:56:51;35.61;33.49;38.26;;
69610;Laerm;56816;52.192;4.474;2023-04-03T00:57:01;35.71;33.12;39.06;;
69610;Laerm;56816;52.192;4.474;2023-04-03T00:57:13;40.24;32.71;52.14;;
69610;Laerm;56816;52.192;4.474;2023-04-03T00:57:25;40.35;34.40;55.43;;
69610;Laerm;56816;52.192;4.474;2023-04-03T00:57:36;36.15;32.99;43.60;;
69610;Laerm;56816;52.192;4.474;2023-04-03T00:57:47;40.21;33.32;50.07;;
69610;Laerm;56816;52.192;4.474;2023-04-03T00:57:58;40.94;32.92;51.03;;
69610;Laerm;56816;52.192;4.474;2023-04-03T00:58:10;50.16;36.33;66.34;;
69610;Laerm;56816;52.192;4.474;2023-04-03T00:58:23;36.16;33.06;40.72;;
69610;Laerm;56816;52.192;4.474;2023-04-03T00:58:37;41.58;35.07;50.93;;
69610;Laerm;56816;52.192;4.474;2023-04-03T00:58:53;35.58;32.78;39.52;;
69610;Laerm;56816;52.192;4.474;2023-04-03T00:59:06;33.70;31.49;37.31;;
69610;Laerm;56816;52.192;4.474;2023-04-03T00:59:20;34.47;31.57;38.00;;
69610;Laerm;56816;52.192;4.474;2023-04-03T00:59:34;33.77;31.62;36.20;;
69610;Laerm;56816;52.192;4.474;2023-04-03T00:59:46;35.16;31.91;40.79;;
69610;Laerm;56816;52.192;4.474;2023-04-03T01:00:01;35.61;32.81;40.77;;
69610;Laerm;56816;52.192;4.474;2023-04-03T01:00:14;35.07;32.71;39.32;;
69610;Laerm;56816;52.192;4.474;2023-04-03T01:00:26;34.15;31.82;36.43;;
69610;Laerm;56816;52.192;4.474;2023-04-03T01:00:37;35.81;33.06;39.92;;
69610;Laerm;56816;52.192;4.474;2023-04-03T01:00:52;35.94;32.93;41.39;;
69610;Laerm;56816;52.192;4.474;2023-04-03T01:01:08;37.61;32.23;44.31;;
69610;Laerm;56816;52.192;4.474;2023-04-03T01:01:22;36.58;33.46;40.87;;
69610;Laerm;56816;52.192;4.474;2023-04-03T01:01:33;37.29;33.94;42.79;;
69610;Laerm;56816;52.192;4.474;2023-04-03T01:01:44;36.65;34.41;39.51;;
69610;Laerm;56816;52.192;4.474;2023-04-03T01:01:55;35.65;33.51;39.63;;
69610;Laerm;56816;52.192;4.474;2023-04-03T01:02:06;35.52;32.82;38.55;;